METAR AND TAF INFORMATION
METAR FOR SBSR
ADDS - METARS form results

(0216 UTC 23 January 2019)
Data provider http://aviationweather.gov/metar/data/
 
METAR text: SBSR 230200Z 12006KT 9999 SCT035 30/19 Q1016
Conditions at: SBSR (SAO JOSE PRETO , BR) observed 0200 UTC 23 January 2019
Temperature: 30.0°C (86°F)
Dewpoint: 19.0°C (66°F) [RH = 52%]
Pressure (altimeter): 30.00 inches Hg (1016.0 mb)
Winds: from the ESE (120 degrees) at 7 MPH (6 knots; 3.1 m/s)
Visibility: 6 or more miles (10+ km)
Ceiling: at least 12,000 feet AGL
Clouds: scattered clouds at 3500 feet AGL
Weather: no significant weather observed at this time

 AIRPORT MAP

 RUNWAY INFORMATION
Runway 7 Runway length 5381 ft Runway width 115 ft
Runway elevation 0 ft Runway displaced threshold 0 ft Runway heading 0
Runway 25 Runway length 5381 ft Runway width 115 ft
Runway elevation 0 ft Runway displaced threshold 0 ft Runway heading 0

 AIRPORT FREQUENCIES
Type AFIS Name RDO Frequency 130.85 MHZ

 AIRPORT NEAR NAVIGATION AIDS
Type NDB Name Rio Preto Frequency 420 KHZ



Powered by Virtual Airlines Manager [v2.6.2]